Latest Weather Observations for Scottsdale

IDT60801

Issued at 12:31 pm EDT Saturday 7 March 2015 (issued every 30 minutes, with the page automatically refreshed every 10 minutes)

About weather observations | Map of weather stations | Latest weather observations for TAS | Other Formats
Station Details ID: 091219 Name: SCOTTSDALE (WEST MINSTONE ROAD) Lat: -41.17 Lon: 147.49 Height: 197.5 m
Data from the previous 72 hours. | See also: Recent months at Scottsdale
Date/Time
EDT
Temp
°C
App
Temp
°C
Dew
Point
Rel
Hum
%
Delta-T
°C
Wind Press
QNH
hPa
Press
MSL
hPa
Rain
since 9 am
mm
Dir
 
Spd
km/h
Gust
km/h
Spd
kts
Gust
kts
07/12:30pm 17.4 15.0 12.6 73 2.7 WNW 17 28 9 15 1004.8 - 0.2
07/12:00pm 16.6 15.0 14.0 84 1.5 NW 15 24 8 13 1004.9 1004.7 0.2
07/11:30am 15.9 14.2 14.7 93 0.7 NW 17 26 9 14 1004.7 - 0.2
07/11:00am 14.3 14.0 13.4 94 0.5 WNW 7 13 4 7 1005.2 - 0.2
07/10:30am 13.5 13.0 12.8 95 0.4 NW 7 13 4 7 1005.5 - 0.0
07/10:00am 13.1 12.1 12.2 94 0.5 NNW 9 11 5 6 1005.5 - 0.0
07/09:30am 12.4 11.5 11.5 94 0.5 NNW 7 11 4 6 1005.5 - 0.0
07/09:00am 11.9 11.0 10.6 92 0.7 NW 6 9 3 5 1005.7 1005.5 0.0
07/08:30am 11.8 10.7 9.9 88 1.0 NW 6 9 3 5 1005.7 - 0.0
07/08:00am 11.6 10.9 8.4 81 1.6 NW 2 9 1 5 1005.8 - 0.0
07/07:30am 11.4 10.7 8.6 83 1.4 WNW 2 6 1 3 1005.6 - 0.0
07/07:00am 11.1 10.7 8.1 82 1.5 CALM 0 0 0 0 1005.5 - 0.0
07/06:30am 10.7 8.8 7.4 80 1.6 NW 7 13 4 7 1005.7 - 0.0
07/06:00am 10.8 9.9 7.7 81 1.5 W 2 6 1 3 1005.4 1005.2 0.0
07/05:30am 10.3 8.3 7.0 80 1.6 SSE 7 11 4 6 1005.2 - 0.0
07/05:00am 9.8 7.8 7.3 84 1.2 S 7 9 4 5 1005.5 - 0.0
07/04:30am 11.2 8.3 6.6 73 2.2 S 11 11 6 6 1005.7 - 0.0
07/04:00am 10.4 8.0 7.1 80 1.6 S 9 15 5 8 1006.0 - 0.0
07/03:30am 9.6 6.7 6.6 81 1.4 S 11 15 6 8 1006.2 - 0.0
07/03:00am 9.9 7.0 6.3 78 1.7 SSE 11 15 6 8 1006.5 1006.3 0.0
07/02:30am 9.6 7.0 6.0 78 1.7 SSE 9 11 5 6 1006.9 - 0.0
07/02:00am 9.6 6.7 6.4 80 1.5 SE 11 13 6 7 1007.0 - 0.0
07/01:30am 10.6 7.7 6.4 75 2.0 SSE 11 15 6 8 1007.5 - 0.0
07/01:00am 9.2 6.2 6.2 81 1.4 SE 11 13 6 7 1007.7 - 0.0
07/12:30am 9.6 6.2 6.0 78 1.7 SE 13 15 7 8 1007.9 - 0.0
07/12:00am 9.3 6.3 5.9 79 1.6 SE 11 13 6 7 1008.0 1007.7 0.0
 
Date/Time
EDT
Temp
°C
App
Temp
°C
Dew
Point
Rel
Hum
%
Delta-T
°C
Wind Press
QNH
hPa
Press
MSL
hPa
Rain
since 9 am
mm
Dir
 
Spd
km/h
Gust
km/h
Spd
kts
Gust
kts
06/11:30pm 9.7 7.1 6.1 78 1.7 SSE 9 11 5 6 1008.0 - 0.0
06/11:00pm 10.0 7.0 6.2 77 1.8 ESE 11 13 6 7 1007.7 - 0.0
06/10:30pm 10.8 8.3 6.4 74 2.1 SSE 9 11 5 6 1007.5 - 0.0
06/10:00pm 11.7 8.2 7.0 73 2.3 ENE 15 20 8 11 1007.3 - 0.0
06/09:30pm 11.2 7.8 6.1 71 2.4 E 13 15 7 8 1007.1 - 0.0
06/09:00pm 12.2 9.3 4.6 59 3.5 E 9 11 5 6 1006.6 1006.4 0.0
06/08:30pm 14.1 11.6 4.5 52 4.5 NW 7 11 4 6 1005.9 - 0.0
06/08:00pm 12.8 11.4 3.3 52 4.3 CALM 0 2 0 1 1005.4 - 0.0
06/07:30pm 16.2 12.7 -1.0 31 7.3 SSW 7 15 4 8 1004.8 - 0.0
06/07:00pm 18.3 13.9 -2.8 23 8.8 SW 11 13 6 7 1004.6 - 0.0
06/06:30pm 18.9 13.3 -3.2 22 9.2 SW 17 22 9 12 1004.4 - 0.0
06/06:00pm 19.2 14.0 -3.0 22 9.3 WSW 15 26 8 14 1003.9 1003.7 0.0
06/05:30pm 19.6 14.5 -2.1 23 9.3 WSW 15 20 8 11 1003.7 - 0.0
06/05:00pm 19.5 14.0 -1.9 23 9.2 SW 17 24 9 13 1003.5 - 0.0
06/04:30pm 19.7 13.7 -1.9 23 9.3 SW 20 30 11 16 1003.1 - 0.0
06/04:00pm 19.8 13.9 -2.5 22 9.4 WSW 19 30 10 16 1003.0 - 0.0
06/03:30pm 20.1 14.1 -1.4 23 9.3 WSW 20 41 11 22 1003.0 - 0.0
06/03:00pm 19.3 12.0 -2.7 22 9.3 SW 26 32 14 17 1002.6 1002.3 0.0
06/02:30pm 19.1 13.1 -1.9 24 8.9 WSW 20 37 11 20 1002.4 - 0.0
06/02:00pm 18.4 11.9 -2.5 24 8.7 WSW 22 33 12 18 1002.0 - 0.0
06/01:30pm 18.5 12.0 -2.3 24 8.7 WSW 22 41 12 22 1001.5 - 0.0
06/01:00pm 18.4 11.4 -3.8 22 9.0 SW 24 33 13 18 1001.2 - 0.0
06/12:30pm 18.6 12.7 -2.1 24 8.7 WSW 19 30 10 16 1001.0 - 0.0
06/12:00pm 18.4 11.0 -3.3 22 9.0 WSW 26 39 14 21 1000.3 1000.1 0.0
06/11:30am 18.4 12.7 -0.5 28 8.2 WSW 19 32 10 17 999.8 - 0.0
06/11:00am 17.4 11.6 0.2 31 7.5 NW 20 32 11 17 999.5 - 0.0
06/10:30am 16.6 8.8 -0.5 31 7.3 SW 30 52 16 28 998.5 - 0.0
06/10:26am 16.7 9.3 -0.4 31 7.4 WSW 28 50 15 27 998.5 - 0.0
06/10:00am 16.5 11.8 1.0 35 6.9 WSW 15 20 8 11 998.4 - 0.0
06/09:30am 16.8 12.0 2.5 38 6.5 WSW 17 28 9 15 997.8 - 0.0
06/09:00am 16.2 10.4 2.2 39 6.4 SW 22 46 12 25 997.1 996.8 0.0
06/08:49am 16.1 8.9 1.0 36 6.7 SW 28 57 15 31 996.3 - 0.0
06/08:30am 16.3 9.5 3.2 41 6.1 SSW 28 44 15 24 995.6 - 0.0
06/08:00am 16.3 11.1 3.5 42 6.0 WSW 20 39 11 21 995.2 - 0.0
06/07:30am 15.3 11.0 5.1 50 4.9 WSW 17 39 9 21 994.7 - 0.0
06/07:00am 13.9 9.5 6.6 61 3.6 W 19 41 10 22 994.0 - 0.0
06/06:30am 13.5 10.5 7.5 67 3.0 WNW 13 24 7 13 993.7 - 0.0
06/06:00am 13.0 8.0 8.0 71 2.5 W 24 44 13 24 993.1 992.8 0.0
06/05:30am 13.0 7.2 8.0 71 2.5 W 28 48 15 26 993.1 - 0.0
06/05:25am 12.6 6.9 8.5 76 2.1 W 28 48 15 26 993.0 - 0.0
06/05:00am 12.6 7.8 8.7 77 2.0 W 24 39 13 21 993.5 - 0.0
06/04:33am 12.8 7.2 8.7 76 2.1 W 28 46 15 25 993.6 - 0.0
06/04:30am 12.6 7.4 8.9 78 1.9 W 26 39 14 21 993.7 - 0.0
06/04:00am 12.8 8.4 8.9 77 2.0 W 22 33 12 18 994.8 - 0.0
06/03:30am 12.8 6.9 8.9 77 2.0 W 30 48 16 26 994.6 - 0.0
06/03:00am 12.7 6.4 8.8 77 2.0 W 32 52 17 28 995.2 994.9 0.0
06/02:48am 12.7 7.1 8.6 76 2.1 W 28 46 15 25 995.6 - 0.0
06/02:30am 12.6 6.9 8.2 74 2.2 W 28 43 15 23 996.2 - 0.0
06/02:00am 12.4 6.6 7.8 73 2.3 W 28 46 15 25 996.9 - 0.0
06/01:30am 12.2 5.5 7.3 72 2.4 W 32 52 17 28 997.7 - 0.0
06/01:00am 12.0 5.1 7.3 73 2.3 W 33 52 18 28 998.6 - 0.0
06/12:30am 11.9 4.9 7.0 72 2.4 W 33 52 18 28 999.2 - 0.0
06/12:00am 11.8 4.7 6.2 68 2.7 W 33 56 18 30 999.4 999.1 0.0
 
Date/Time
EDT
Temp
°C
App
Temp
°C
Dew
Point
Rel
Hum
%
Delta-T
°C
Wind Press
QNH
hPa
Press
MSL
hPa
Rain
since 9 am
mm
Dir
 
Spd
km/h
Gust
km/h
Spd
kts
Gust
kts
05/11:30pm 11.5 4.8 5.8 68 2.7 W 30 48 16 26 1000.6 - 0.0
05/11:00pm 11.4 5.0 5.4 66 2.8 W 28 46 15 25 1001.3 - 0.0
05/10:30pm 11.4 4.9 4.9 64 3.0 W 28 50 15 27 1001.6 - 0.0
05/10:00pm 11.1 4.6 4.6 64 3.0 W 28 46 15 25 1002.2 - 0.0
05/09:53pm 11.2 4.6 4.4 63 3.1 W 28 46 15 25 1002.5 - 0.0
05/09:30pm 11.1 6.0 4.3 63 3.1 W 20 41 11 22 1002.9 - 0.0
05/09:11pm 11.3 4.3 4.0 61 3.3 W 30 50 16 27 1002.8 - 0.0
05/09:00pm 11.2 4.5 3.9 61 3.3 W 28 46 15 25 1002.8 1002.5 0.0
05/08:57pm 11.2 4.5 3.9 61 3.3 W 28 46 15 25 1002.8 - 0.0
05/08:30pm 11.2 4.7 2.8 56 3.7 W 26 43 14 23 1003.1 - 0.0
05/08:00pm 11.5 4.1 1.8 51 4.2 W 30 43 16 23 1004.0 - 0.0
05/07:30pm 12.1 4.2 1.1 47 4.7 W 32 56 17 30 1003.9 - 0.0
05/07:15pm 12.9 5.8 1.4 45 5.0 WNW 28 48 15 26 1004.3 - 0.0
05/07:00pm 12.9 6.0 0.4 42 5.3 WNW 26 43 14 23 1004.5 - 0.0
05/06:30pm 13.2 6.8 -1.9 35 6.1 W 22 43 12 23 1004.9 - 0.0
05/06:08pm 13.6 6.0 -1.9 34 6.3 W 28 46 15 25 1005.1 - 0.0
05/06:00pm 13.9 7.9 -1.4 35 6.3 W 20 48 11 26 1005.4 1005.2 0.0
05/05:30pm 14.5 5.6 -1.8 32 6.7 W 35 54 19 29 1005.3 - 0.0
05/05:14pm 14.2 6.4 -0.5 36 6.2 W 30 50 16 27 1005.5 - 0.0
05/05:00pm 15.2 6.8 -1.0 33 6.8 WNW 33 50 18 27 1005.4 - 0.0
05/04:36pm 15.8 8.5 -0.3 33 6.9 WNW 28 48 15 26 1005.6 - 0.0
05/04:30pm 14.9 8.2 -0.8 34 6.6 W 24 48 13 26 1005.7 - 0.0
05/04:00pm 16.3 9.1 -2.3 28 7.7 W 26 43 14 23 1005.8 - 0.0
05/03:30pm 16.6 8.5 -3.0 26 8.0 W 30 48 16 26 1006.0 - 0.0
05/03:00pm 16.4 8.4 -2.6 27 7.8 W 30 48 16 26 1006.5 1006.3 0.0
05/02:53pm 16.3 8.6 -2.8 27 7.8 W 28 48 15 26 1006.7 - 0.0
05/02:30pm 16.2 9.3 -2.6 27 7.7 W 24 43 13 23 1006.8 - 0.0
05/02:00pm 16.8 10.7 -2.2 27 7.9 W 20 35 11 19 1006.7 - 0.0
05/01:30pm 16.2 10.0 -3.4 26 7.9 WSW 20 32 11 17 1007.2 - 0.0
05/01:00pm 15.2 5.8 -6.0 22 8.0 SW 35 56 19 30 1006.9 - 0.0
05/12:52pm 15.1 7.0 -6.3 22 8.0 WSW 28 57 15 31 1007.0 - 0.0
05/12:30pm 14.9 8.8 -2.7 29 7.1 WSW 20 35 11 19 1007.1 - 0.0
05/12:00pm 13.6 7.0 -3.1 31 6.6 SW 22 37 12 20 1007.5 1007.2 0.0
05/11:30am 12.4 5.0 -3.3 33 6.1 SW 26 48 14 26 1007.7 - 0.0
05/11:00am 12.0 3.4 -4.1 32 6.1 SW 32 54 17 29 1007.3 - 0.0
05/10:30am 11.5 2.6 -5.0 31 6.1 SW 33 56 18 30 1006.7 - 0.0
05/10:00am 11.0 3.0 -2.3 39 5.2 SW 30 48 16 26 1006.4 - 0.0
05/09:30am 10.8 1.5 -1.9 41 5.0 SW 37 61 20 33 1005.5 - 0.0
05/09:10am 10.6 2.4 -0.8 45 4.6 SW 32 50 17 27 1005.2 - 0.0
05/09:00am 10.3 1.8 -1.6 43 4.7 SW 33 50 18 27 1004.9 1004.7 1.0
05/08:30am 10.0 2.6 -1.0 46 4.4 WSW 28 54 15 29 1003.5 - 1.0
05/08:24am 9.9 2.5 -0.5 48 4.2 WSW 28 54 15 29 1003.4 - 1.0
05/08:00am 9.3 4.0 -0.4 50 3.9 W 17 44 9 24 1003.4 - 1.0
05/07:30am 8.3 3.6 1.0 60 3.0 W 15 30 8 16 1002.9 - 1.0
05/07:00am 8.6 3.6 1.1 59 3.1 W 17 24 9 13 1002.0 - 1.0
05/06:30am 9.4 4.2 0.4 53 3.7 W 17 35 9 19 1000.5 - 1.0
05/06:00am 9.6 4.7 1.9 58 3.3 WSW 17 43 9 23 1000.0 999.8 1.0
05/05:30am 10.2 4.8 2.4 58 3.4 W 20 35 11 19 999.0 - 1.0
05/05:00am 10.1 4.9 3.6 64 2.9 W 20 35 11 19 998.8 - 1.0
05/04:30am 10.1 3.8 3.9 65 2.8 W 26 43 14 23 998.1 - 1.0
05/04:00am 10.5 4.7 4.4 66 2.8 W 24 50 13 27 997.6 - 1.0
05/03:30am 10.3 5.8 6.8 79 1.7 W 20 30 11 16 997.5 - 1.0
05/03:00am 10.9 7.1 7.6 80 1.6 WNW 17 22 9 12 997.5 997.2 1.0
05/02:30am 11.1 8.4 9.1 87 1.0 W 13 20 7 11 997.3 - 1.0
05/02:00am 11.4 8.2 9.9 90 0.8 W 17 26 9 14 998.0 - 1.0
05/01:30am 11.8 8.8 10.7 93 0.6 W 17 22 9 12 998.3 - 1.0
05/01:00am 12.1 9.3 11.2 94 0.5 WNW 17 26 9 14 998.7 - 1.0
05/12:30am 12.4 10.0 11.3 93 0.6 WNW 15 24 8 13 998.8 - 0.6
05/12:00am 12.6 9.6 10.7 88 1.0 WNW 17 22 9 12 999.5 999.2 0.6
 
Date/Time
EDT
Temp
°C
App
Temp
°C
Dew
Point
Rel
Hum
%
Delta-T
°C
Wind Press
QNH
hPa
Press
MSL
hPa
Rain
since 9 am
mm
Dir
 
Spd
km/h
Gust
km/h
Spd
kts
Gust
kts
04/11:30pm 12.8 9.9 10.9 88 1.0 WNW 17 32 9 17 999.5 - 0.6
04/11:00pm 13.7 11.1 11.9 89 1.0 WNW 17 26 9 14 1000.4 - 0.4
04/10:30pm 13.7 10.3 12.4 92 0.7 WNW 22 35 12 19 1000.7 - 0.2
04/10:00pm 13.3 10.3 12.4 94 0.5 WNW 20 32 11 17 1001.3 - 0.2
04/09:30pm 13.7 10.3 11.3 85 1.3 WNW 20 33 11 18 1001.6 - 0.2
04/09:00pm 14.7 11.0 9.5 71 2.7 WNW 19 32 10 17 1001.9 1001.7 0.0
04/08:30pm 14.8 10.8 10.3 74 2.4 WNW 22 35 12 19 1002.2 - 0.0
04/08:00pm 15.0 11.1 10.9 76 2.2 WNW 22 37 12 20 1002.0 - 0.0
04/07:30pm 15.6 10.5 10.6 72 2.7 WNW 28 46 15 25 1002.2 - 0.0
04/07:02pm 16.0 10.5 9.3 64 3.5 WNW 28 48 15 26 1002.6 - 0.0
04/07:00pm 16.0 10.9 9.3 64 3.5 WNW 26 48 14 26 1002.7 - 0.0
04/06:30pm 16.1 11.2 11.3 73 2.6 WNW 28 46 15 25 1002.7 - 0.0
04/06:02pm 16.2 11.0 11.7 74 2.5 WNW 30 54 16 29 1002.8 - 0.0
04/06:00pm 16.2 11.5 11.9 75 2.4 WNW 28 44 15 24 1002.9 1002.6 0.0
04/05:30pm 16.6 11.3 11.1 70 3.0 WNW 30 48 16 26 1003.2 - 0.0
04/05:26pm 16.7 11.7 11.0 69 3.1 WNW 28 48 15 26 1003.2 - 0.0
04/05:00pm 17.5 13.1 11.7 69 3.2 WNW 26 46 14 25 1003.5 - 0.0
04/04:55pm 16.9 12.0 11.4 70 3.0 WNW 28 46 15 25 1003.5 - 0.0
04/04:30pm 17.7 13.1 10.9 64 3.7 W 26 39 14 21 1003.9 - 0.0
04/04:00pm 17.7 12.7 10.9 64 3.7 WNW 28 46 15 25 1003.9 - 0.0
04/03:34pm 18.0 12.7 9.8 58 4.4 WNW 28 46 15 25 1004.2 - 0.0
04/03:30pm 18.5 13.3 10.2 58 4.5 WNW 28 44 15 24 1004.2 - 0.0
04/03:00pm 17.3 12.3 10.9 66 3.5 WNW 28 44 15 24 1004.8 1004.6 0.0
04/02:30pm 16.5 11.5 11.0 70 3.0 WNW 28 46 15 25 1005.3 - 0.0
04/02:07pm 18.0 12.8 10.2 60 4.2 WNW 28 46 15 25 1005.4 - 0.0
04/02:00pm 17.5 12.6 10.0 61 4.0 WNW 26 41 14 22 1005.4 - 0.0
04/01:34pm 17.2 11.8 9.5 60 4.1 WNW 28 48 15 26 1005.5 - 0.0
04/01:30pm 17.5 12.9 9.8 60 4.1 WNW 24 43 13 23 1005.6 - 0.0
04/01:04pm 17.4 12.2 10.1 62 3.9 W 28 46 15 25 1006.0 - 0.0
04/01:00pm 17.0 11.3 9.7 62 3.9 WNW 30 46 16 25 1006.2 - 0.0

Other Formats:

Comma delimited format used in spreadsheet applications
http://www.bom.gov.au/fwo/IDT60801/IDT60801.94972.axf

JavaScript Object Notation format (JSON) in row-major order
http://www.bom.gov.au/fwo/IDT60801/IDT60801.94972.json